Time;durP1;ratioP1;P1;durP2;ratioP2;P2;SDS_P1;SDS_P2;PMS_P1;PMS_P2;Temp;Humidity;BMP_temperature;BMP_pressure;BME280_temperature;BME280_humidity;BME280_pressure;Samples;Min_cycle;Max_cycle;Signal;HPM_P1;HPM_P2
2022/05/06 00:00:47;;;;;;;;;28.00;24.75;;;;;16.16;52.89;102380.31;2400695;28;45211;-83
2022/05/06 00:01:58;;;;;;;;;23.25;20.00;;;;;16.13;53.19;102376.88;2402377;28;45243;-83
2022/05/06 00:03:08;;;;;;;;;22.75;21.00;;;;;16.09;53.41;102376.13;2402530;28;45329;-83
2022/05/06 00:04:18;;;;;;;;;24.50;20.50;;;;;16.08;53.07;102375.25;2392137;28;45403;-83
2022/05/06 00:05:30;;;;;;;;;21.00;21.00;;;;;16.07;53.24;102376.19;2386057;28;47957;-85
2022/05/06 00:06:41;;;;;;;;;26.25;21.00;;;;;16.09;52.99;102376.13;2386044;28;45418;-85
2022/05/06 00:07:51;;;;;;;;;25.00;20.50;;;;;16.09;53.14;102376.13;2392859;28;45561;-85
2022/05/06 00:09:02;;;;;;;;;21.75;19.50;;;;;16.10;53.40;102377.84;2397054;28;44624;-85
2022/05/06 00:10:14;;;;;;;;;29.75;22.00;;;;;16.12;53.27;102380.47;2402191;28;45472;-82
2022/05/06 00:11:25;;;;;;;;;24.00;21.00;;;;;16.14;53.26;102375.97;2402285;28;45331;-82
2022/05/06 00:12:35;;;;;;;;;19.75;17.00;;;;;16.17;53.29;102378.56;2402768;28;45360;-82
2022/05/06 00:13:46;;;;;;;;;26.75;20.25;;;;;16.17;53.24;102374.09;2399481;28;44641;-82
2022/05/06 00:14:56;;;;;;;;;25.25;22.50;;;;;16.16;53.18;102379.44;2383205;28;47300;-82
2022/05/06 00:16:08;;;;;;;;;20.75;20.75;;;;;16.17;53.45;102381.22;2386971;28;44800;-82
2022/05/06 00:17:18;;;;;;;;;25.75;22.25;;;;;16.16;53.49;102379.44;2383399;28;46987;-84
2022/05/06 00:18:30;;;;;;;;;21.75;19.00;;;;;16.15;53.68;102378.56;2393851;28;45219;-86
2022/05/06 00:19:44;;;;;;;;;26.50;22.75;;;;;16.16;53.35;102374.16;2401271;28;45292;-87
2022/05/06 00:20:55;;;;;;;;;20.75;20.25;;;;;16.16;53.57;102374.16;2402225;28;45256;-87
2022/05/06 00:22:06;;;;;;;;;27.00;25.50;;;;;16.15;53.69;102380.38;2389891;28;47483;-87
2022/05/06 00:23:16;;;;;;;;;31.75;25.00;;;;;16.13;53.45;102369.81;2386305;28;44665;-86
2022/05/06 00:24:28;;;;;;;;;27.00;21.50;;;;;16.12;53.58;102386.66;2393282;28;45272;-86
2022/05/06 00:25:39;;;;;;;;;33.25;24.00;;;;;16.10;53.63;102371.69;2383005;28;45277;-86
2022/05/06 00:26:49;;;;;;;;;29.25;21.25;;;;;16.10;53.55;102377.00;2394824;28;46322;-86
2022/05/06 00:28:00;;;;;;;;;23.75;21.75;;;;;16.12;53.43;102376.03;2402916;28;44677;-87
2022/05/06 00:29:11;;;;;;;;;29.00;24.25;;;;;16.14;53.52;102376.84;2397063;28;48808;-86
2022/05/06 00:30:21;;;;;;;;;25.75;22.75;;;;;16.12;53.14;102375.16;2393349;28;44657;-87
2022/05/06 00:31:32;;;;;;;;;20.25;19.75;;;;;16.09;53.40;102376.13;2396584;28;46242;-86
2022/05/06 00:32:42;;;;;;;;;28.75;25.00;;;;;16.09;53.80;102370.81;2396690;28;45233;-86
2022/05/06 00:33:52;;;;;;;;;23.25;20.00;;;;;16.11;53.62;102376.94;2399909;28;47315;-88
2022/05/06 00:35:03;;;;;;;;;28.25;22.00;;;;;16.09;53.94;102378.78;2393288;28;45258;-88
2022/05/06 00:36:17;;;;;;;;;25.50;22.50;;;;;16.06;53.59;102374.44;2390993;28;47223;-89
2022/05/06 00:37:27;;;;;;;;;24.00;21.50;;;;;16.04;53.45;102378.00;2395927;28;45346;-84
2022/05/06 00:38:38;;;;;;;;;24.50;18.25;;;;;16.02;53.71;102380.72;2401446;28;46100;-87
2022/05/06 00:39:48;;;;;;;;;21.00;19.75;;;;;16.02;53.81;102383.38;2401396;28;44779;-87
2022/05/06 00:40:59;;;;;;;;;23.75;20.75;;;;;16.03;53.62;102381.56;2401916;28;45267;-87
2022/05/06 00:42:09;;;;;;;;;25.25;21.50;;;;;16.04;53.63;102384.22;2402105;28;45210;-88
2022/05/06 00:43:21;;;;;;;;;23.25;19.75;;;;;16.03;53.39;102373.59;2392327;28;47248;-88
2022/05/06 00:44:32;;;;;;;;;26.00;23.25;;;;;16.03;53.79;102378.91;2392428;28;44700;-87
2022/05/06 00:45:52;;;;;;;;;23.50;19.75;;;;;16.02;54.32;102379.84;2394814;28;45313;-89
2022/05/06 00:47:04;;;;;;;;;23.00;22.00;;;;;15.98;53.80;102374.63;2394674;28;44721;-88
2022/05/06 00:48:16;;;;;;;;;28.00;25.50;;;;;15.98;54.12;102379.06;2385976;28;47312;-91
2022/05/06 00:49:26;;;;;;;;;20.25;19.25;;;;;15.95;54.20;102380.00;2395374;28;44738;-90
2022/05/06 00:50:38;;;;;;;;;25.50;21.00;;;;;15.96;53.53;102375.59;2399940;28;47333;-90
2022/05/06 00:51:51;;;;;;;;;20.00;18.50;;;;;15.96;53.94;102380.88;2392899;28;44663;-90
2022/05/06 00:53:06;;;;;;;;;19.50;18.25;;;;;15.94;53.88;102378.28;2395729;28;45444;-91
2022/05/06 00:54:16;;;;;;;;;27.50;24.00;;;;;15.93;54.18;102376.53;2397416;28;45255;-90
2022/05/06 00:55:27;;;;;;;;;23.50;21.75;;;;;15.93;54.47;102383.63;2393363;28;47118;-90
2022/05/06 00:56:38;;;;;;;;;24.75;22.75;;;;;15.92;54.21;102382.78;2386884;28;45433;-87
2022/05/06 00:57:48;;;;;;;;;23.25;22.00;;;;;15.90;54.12;102373.13;2387598;28;48174;-86
2022/05/06 00:58:59;;;;;;;;;23.50;22.00;;;;;15.90;54.22;102381.09;2396014;28;45256;-87
2022/05/06 01:00:18;;;;;;;;;24.25;23.25;;;;;15.89;54.29;102374.91;2404285;28;45335;-86
2022/05/06 01:01:29;;;;;;;;;25.75;22.50;;;;;15.89;54.66;102382.84;2398551;28;45472;-85
2022/05/06 01:02:39;;;;;;;;;23.00;22.25;;;;;15.87;54.24;102374.09;2403434;28;47234;-85
2022/05/06 01:03:50;;;;;;;;;28.00;24.00;;;;;15.87;54.39;102374.09;2403760;28;45304;-86
2022/05/06 01:05:02;;;;;;;;;29.25;24.50;;;;;15.85;54.61;102373.28;2397804;28;45353;-86
2022/05/06 01:06:15;;;;;;;;;25.75;24.00;;;;;15.84;54.19;102377.69;2395158;28;45451;-86
2022/05/06 01:07:26;;;;;;;;;22.25;20.75;;;;;15.83;54.49;102367.13;2394838;28;46187;-86
2022/05/06 01:08:38;;;;;;;;;24.25;18.25;;;;;15.84;54.38;102371.50;2394858;28;45163;-86
2022/05/06 01:09:51;;;;;;;;;25.75;22.00;;;;;15.83;54.29;102369.75;2400718;28;47949;-85
2022/05/06 01:11:01;;;;;;;;;24.50;21.25;;;;;15.87;54.41;102374.09;2403257;28;45476;-86
2022/05/06 01:12:12;;;;;;;;;26.75;22.25;;;;;15.88;54.50;102364.34;2403418;28;45502;-86
2022/05/06 01:13:22;;;;;;;;;26.50;22.50;;;;;15.90;54.34;102366.03;2394871;28;45088;-86
2022/05/06 01:14:33;;;;;;;;;27.25;24.00;;;;;15.90;54.16;102366.03;2384344;28;46912;-86
2022/05/06 01:15:44;;;;;;;;;25.50;23.00;;;;;15.94;54.55;102366.81;2387761;28;45353;-85
2022/05/06 01:16:54;;;;;;;;;25.00;21.25;;;;;15.94;54.33;102367.69;2391086;28;46933;-85
2022/05/06 01:18:05;;;;;;;;;20.25;18.50;;;;;15.95;54.02;102365.91;2383988;28;45447;-86
2022/05/06 01:19:15;;;;;;;;;26.25;23.00;;;;;15.93;54.38;102365.94;2387374;28;45617;-84
2022/05/06 01:20:26;;;;;;;;;21.75;21.25;;;;;15.94;54.37;102366.81;2399576;28;45148;-84
2022/05/06 01:21:42;;;;;;;;;26.00;20.75;;;;;15.94;54.05;102370.34;2399176;28;45552;-85
2022/05/06 01:22:58;;;;;;;;;32.00;21.75;;;;;15.97;54.30;102375.56;2395600;28;45521;-84
2022/05/06 01:24:08;;;;;;;;;26.50;23.00;;;;;15.95;53.82;102366.75;2394379;28;46270;-84
2022/05/06 01:25:22;;;;;;;;;25.50;23.25;;;;;15.94;54.39;102362.38;2395942;28;44634;-83
2022/05/06 01:27:15;;;;;;;;;27.00;22.75;;;;;15.93;54.27;102367.72;2404068;28;45707;-83
2022/05/06 01:28:26;;;;;;;;;27.25;23.50;;;;;15.92;54.45;102366.88;2391664;28;45294;-83
2022/05/06 01:29:38;;;;;;;;;27.00;23.50;;;;;15.90;54.39;102363.38;2402807;28;45327;-83
2022/05/06 01:30:52;;;;;;;;;25.25;21.50;;;;;15.91;54.60;102366.91;2403657;28;45484;-83
2022/05/06 01:32:03;;;;;;;;;32.75;25.75;;;;;15.91;54.42;102366.91;2399058;28;45509;-83
2022/05/06 01:33:18;;;;;;;;;29.25;25.75;;;;;15.92;54.47;102364.22;2399575;28;45267;-83
2022/05/06 01:34:32;;;;;;;;;31.75;26.75;;;;;15.91;54.32;102366.91;2413549;28;46633;-87
2022/05/06 01:35:45;;;;;;;;;24.50;20.00;;;;;15.91;54.37;102375.72;2394669;28;45398;-85
2022/05/06 01:37:01;;;;;;;;;25.25;21.25;;;;;15.89;54.79;102368.72;2390227;28;47327;-85
2022/05/06 01:38:18;;;;;;;;;29.50;25.50;;;;;15.88;54.44;102373.16;2384000;28;45438;-84
2022/05/06 01:39:33;;;;;;;;;30.50;26.00;;;;;15.86;55.05;102373.22;2391449;28;46601;-85
2022/05/06 01:40:48;;;;;;;;;29.75;24.00;;;;;15.85;54.60;102382.06;2403855;28;45424;-85
2022/05/06 01:42:05;;;;;;;;;25.75;20.50;;;;;15.85;54.58;102373.28;2396279;28;46298;-85
2022/05/06 01:43:18;;;;;;;;;30.25;25.50;;;;;15.86;55.02;102374.97;2392232;28;45410;-85
2022/05/06 01:44:34;;;;;;;;;29.75;25.00;;;;;15.85;54.56;102368.81;2394063;28;46529;-85
2022/05/06 01:45:47;;;;;;;;;26.25;18.50;;;;;15.88;54.33;102373.16;2394673;28;44678;-84
2022/05/06 01:47:00;;;;;;;;;32.75;25.00;;;;;15.90;54.62;102375.78;2392127;28;47310;-84
2022/05/06 01:48:12;;;;;;;;;32.25;24.75;;;;;15.86;54.75;102365.25;2387450;28;45327;-84
2022/05/06 01:49:23;;;;;;;;;31.75;26.75;;;;;15.89;54.51;102369.59;2392303;28;47979;-87
2022/05/06 01:50:37;;;;;;;;;32.00;25.00;;;;;15.89;54.68;102374.91;2394773;28;44845;-82
2022/05/06 01:51:49;;;;;;;;;28.50;23.75;;;;;15.87;54.71;102374.09;2394384;28;45499;-82
2022/05/06 01:53:01;;;;;;;;;23.75;23.25;;;;;15.85;54.80;102363.50;2394694;28;45265;-82
2022/05/06 01:54:12;;;;;;;;;25.00;22.75;;;;;15.86;55.04;102369.69;2395556;28;45523;-82
2022/05/06 01:55:23;;;;;;;;;31.75;28.00;;;;;15.85;54.84;102362.66;2394384;28;45329;-83
2022/05/06 01:56:33;;;;;;;;;26.25;22.50;;;;;15.86;54.89;102370.56;2393465;28;47223;-83
2022/05/06 01:57:44;;;;;;;;;31.75;27.25;;;;;15.88;55.03;102367.00;2388322;28;45248;-84
2022/05/06 01:58:55;;;;;;;;;30.50;26.50;;;;;15.86;54.71;102364.38;2395879;28;45398;-86
2022/05/06 02:00:06;;;;;;;;;31.25;27.75;;;;;15.85;55.03;102366.16;2402092;28;45317;-86
2022/05/06 02:01:16;;;;;;;;;25.75;25.00;;;;;15.86;54.76;102369.69;2397412;28;46557;-86
2022/05/06 02:02:26;;;;;;;;;31.50;26.25;;;;;15.85;54.95;102362.66;2397586;28;45168;-86
2022/05/06 02:05:17;;;;;;;;;26.75;25.25;;;;;15.86;55.02;102369.69;2394371;28;45219;-86
2022/05/06 02:06:27;;;;;;;;;28.00;22.00;;;;;15.84;54.97;102374.16;2384399;28;47440;-87
2022/05/06 02:07:37;;;;;;;;;26.00;22.75;;;;;15.84;55.26;102375.03;2380961;28;45353;-84
2022/05/06 02:08:48;;;;;;;;;33.25;27.50;;;;;15.83;55.24;102367.13;2388147;28;45619;-84
2022/05/06 02:09:58;;;;;;;;;25.25;23.50;;;;;15.83;55.30;102369.75;2401470;28;45234;-85
2022/05/06 02:11:08;;;;;;;;;25.75;21.25;;;;;15.85;55.12;102374.09;2399945;28;46260;-85
2022/05/06 02:12:19;;;;;;;;;24.25;21.75;;;;;15.88;55.13;102377.63;2394348;28;45293;-84
2022/05/06 02:13:29;;;;;;;;;28.75;25.25;;;;;15.88;55.03;102370.50;2403077;28;46157;-85
2022/05/06 02:14:40;;;;;;;;;29.25;25.50;;;;;15.88;54.76;102378.47;2403599;28;45218;-86
2022/05/06 02:15:50;;;;;;;;;32.00;26.25;;;;;15.84;54.97;102377.69;2403109;28;45347;-85
2022/05/06 02:17:01;;;;;;;;;26.75;24.75;;;;;15.83;54.74;102378.59;2390972;28;45526;-86
2022/05/06 02:18:11;;;;;;;;;26.75;24.50;;;;;15.83;54.90;102383.91;2393475;28;47649;-85
2022/05/06 02:19:22;;;;;;;;;24.25;22.00;;;;;15.83;54.86;102377.72;2390243;28;45243;-85
2022/05/06 02:20:32;;;;;;;;;28.00;23.75;;;;;15.81;54.89;102375.13;2403615;28;45610;-85
2022/05/06 02:21:42;;;;;;;;;26.25;25.25;;;;;15.79;54.85;102376.09;2399681;28;45168;-86
2022/05/06 02:22:53;;;;;;;;;24.75;23.25;;;;;15.77;54.94;102377.91;2394050;28;46530;-86
2022/05/06 02:24:03;;;;;;;;;27.25;24.00;;;;;15.75;54.95;102378.81;2394102;28;44683;-85
2022/05/06 02:25:14;;;;;;;;;33.75;26.75;;;;;15.75;54.92;102378.81;2394038;28;45320;-85
2022/05/06 02:26:24;;;;;;;;;25.00;22.75;;;;;15.75;55.04;102378.81;2393980;28;45421;-86
2022/05/06 02:27:39;;;;;;;;;30.25;25.00;;;;;15.77;55.22;102380.56;2394839;28;46161;-86
2022/05/06 02:28:49;;;;;;;;;30.25;26.00;;;;;15.77;54.97;102380.56;2402992;28;45249;-85
2022/05/06 02:33:12;;;;;;;;;31.00;28.00;;;;;15.74;55.16;102376.22;2397245;28;45234;-85
2022/05/06 02:34:23;;;;;;;;;28.25;26.75;;;;;15.71;55.19;102374.53;2399605;28;45433;-85
2022/05/06 02:35:33;;;;;;;;;32.25;26.25;;;;;15.69;54.85;102367.53;2393472;28;46368;-85
2022/05/06 02:36:45;;;;;;;;;33.50;26.50;;;;;15.70;55.19;102369.28;2401788;28;44781;-83
2022/05/06 02:37:55;;;;;;;;;30.25;25.50;;;;;15.69;55.28;102373.69;2401948;28;47271;-86
2022/05/06 02:39:05;;;;;;;;;28.50;25.25;;;;;15.68;55.20;102371.94;2402430;28;44668;-86
2022/05/06 02:40:16;;;;;;;;;31.00;23.50;;;;;15.68;55.23;102371.09;2393933;28;45265;-84
2022/05/06 02:41:27;;;;;;;;;33.00;26.25;;;;;15.67;55.17;102377.31;2398164;28;45295;-84
2022/05/06 02:42:38;;;;;;;;;30.75;26.25;;;;;15.67;55.22;102372.88;2383371;28;47688;-83
2022/05/06 02:43:48;;;;;;;;;27.75;27.00;;;;;15.66;55.47;102373.78;2386133;28;45375;-82
2022/05/06 02:44:59;;;;;;;;;30.00;24.75;;;;;15.64;55.38;102372.97;2393464;28;46237;-83
2022/05/06 02:46:09;;;;;;;;;27.75;21.50;;;;;15.63;55.27;102371.25;2397169;28;45168;-84
2022/05/06 02:47:19;;;;;;;;;28.00;26.00;;;;;15.61;55.56;102368.63;2400092;28;45389;-85
2022/05/06 02:48:30;;;;;;;;;31.50;24.75;;;;;15.60;55.54;102366.00;2395320;28;45296;-84
2022/05/06 02:49:40;;;;;;;;;32.00;23.25;;;;;15.58;55.53;102363.38;2397096;28;45259;-85
2022/05/06 02:50:51;;;;;;;;;30.25;24.75;;;;;15.59;55.52;102375.75;2402869;28;45243;-86
2022/05/06 02:52:01;;;;;;;;;34.25;26.75;;;;;15.57;55.49;102364.31;2392163;28;47131;-85
2022/05/06 02:53:11;;;;;;;;;30.75;25.75;;;;;15.56;55.42;102367.00;2395340;28;45204;-86
2022/05/06 02:54:22;;;;;;;;;33.75;28.25;;;;;15.54;55.58;102369.69;2402467;28;45331;-86
2022/05/06 02:55:33;;;;;;;;;30.00;26.75;;;;;15.50;55.76;102363.63;2400260;28;45491;-88
2022/05/06 02:56:43;;;;;;;;;29.25;24.50;;;;;15.46;55.81;102361.97;2391017;28;47386;-83
2022/05/06 02:57:54;;;;;;;;;27.25;24.50;;;;;15.45;55.69;102365.53;2395562;28;45364;-83
2022/05/06 02:59:05;;;;;;;;;32.50;26.50;;;;;15.43;55.74;102366.50;2402391;28;45420;-83
2022/05/06 03:00:15;;;;;;;;;25.25;23.00;;;;;15.44;55.93;102369.09;2402108;28;45311;-83
2022/05/06 03:01:28;;;;;;;;;35.25;24.75;;;;;15.44;55.86;102363.78;2397670;28;45460;-85
2022/05/06 03:02:39;;;;;;;;;28.75;26.00;;;;;15.44;55.77;102369.09;2394608;28;44845;-87
2022/05/06 03:03:51;;;;;;;;;29.00;25.25;;;;;15.45;55.83;102375.25;2402707;28;45599;-87
2022/05/06 03:05:02;;;;;;;;;23.25;23.25;;;;;15.46;56.01;102371.72;2402626;28;45374;-85
2022/05/06 03:06:12;;;;;;;;;29.25;24.75;;;;;15.46;55.89;102366.41;2399757;28;47003;-85
2022/05/06 03:07:23;;;;;;;;;25.50;23.25;;;;;15.45;56.23;102381.44;2399752;28;45246;-86
2022/05/06 03:08:33;;;;;;;;;35.50;30.00;;;;;15.46;55.99;102377.84;2394155;28;45789;-87
2022/05/06 03:09:44;;;;;;;;;27.50;23.50;;;;;15.47;56.03;102379.59;2402442;28;45409;-87
2022/05/06 03:10:54;;;;;;;;;28.25;23.75;;;;;15.44;55.83;102374.38;2392413;28;47033;-85
2022/05/06 03:12:05;;;;;;;;;28.00;24.75;;;;;15.43;55.97;102372.66;2395550;28;44720;-85
2022/05/06 03:13:16;;;;;;;;;29.50;24.00;;;;;15.41;56.19;102371.81;2396190;28;45331;-85
2022/05/06 03:14:27;;;;;;;;;26.75;25.50;;;;;15.41;55.87;102372.69;2385660;28;45251;-86
2022/05/06 03:15:37;;;;;;;;;29.75;23.00;;;;;15.38;55.90;102375.41;2394897;28;45393;-86
2022/05/06 03:16:47;;;;;;;;;30.50;27.50;;;;;15.37;56.10;102370.16;2400491;28;45242;-85
2022/05/06 03:17:59;;;;;;;;;30.75;26.00;;;;;15.38;56.19;102374.56;2390982;28;47171;-86
2022/05/06 03:19:09;;;;;;;;;34.75;29.50;;;;;15.35;56.12;102372.00;2394880;28;45287;-85
2022/05/06 03:20:20;;;;;;;;;24.75;23.50;;;;;15.35;56.01;102374.63;2401109;28;45241;-85
2022/05/06 03:21:30;;;;;;;;;32.75;24.75;;;;;15.33;56.21;102372.03;2402612;28;44568;-84
2022/05/06 03:22:43;;;;;;;;;32.25;27.75;;;;;15.34;56.21;102372.88;2402432;28;46284;-85
2022/05/06 03:23:53;;;;;;;;;35.25;29.25;;;;;15.33;56.39;102376.47;2399470;28;45453;-84
2022/05/06 03:25:04;;;;;;;;;32.75;29.25;;;;;15.30;56.16;102377.41;2392170;28;45440;-84
2022/05/06 03:26:14;;;;;;;;;38.00;29.25;;;;;15.27;56.51;102373.06;2360688;28;1174365;-82
2022/05/06 03:28:57;;;;;;;;;32.25;28.25;;;;;15.26;56.54;102373.97;2391130;28;44763;-84
2022/05/06 03:30:08;;;;;;;;;28.50;24.50;;;;;15.21;56.59;102370.56;2400374;28;45454;-83
2022/05/06 03:31:18;;;;;;;;;29.00;26.00;;;;;15.20;56.42;102371.50;2392927;28;45259;-84
2022/05/06 03:32:31;;;;;;;;;33.50;28.50;;;;;15.21;56.41;102375.88;2393162;28;45271;-84
2022/05/06 03:33:42;;;;;;;;;33.50;24.00;;;;;15.19;56.54;102375.03;2398796;28;45509;-84
2022/05/06 03:34:52;;;;;;;;;26.75;25.25;;;;;15.18;56.64;102378.63;2396639;28;45429;-84
2022/05/06 03:36:03;;;;;;;;;30.50;25.75;;;;;15.17;56.80;102379.50;2401052;28;44735;-84
2022/05/06 03:37:13;;;;;;;;;35.25;27.00;;;;;15.14;56.50;102380.47;2403091;28;45665;-84
2022/05/06 03:38:24;;;;;;;;;34.75;31.00;;;;;15.09;57.23;102381.50;2402805;28;45484;-84
2022/05/06 03:39:34;;;;;;;;;32.00;31.00;;;;;15.05;56.89;102378.94;2403072;28;45263;-82
2022/05/06 03:40:44;;;;;;;;;29.25;24.00;;;;;15.04;57.37;102381.59;2393022;28;45342;-82
2022/05/06 03:41:55;;;;;;;;;30.75;25.25;;;;;15.00;57.05;102375.53;2395610;28;45670;-82
2022/05/06 03:43:05;;;;;;;;;28.75;24.50;;;;;14.99;57.04;102379.06;2403029;28;45188;-81
2022/05/06 03:44:16;;;;;;;;;30.25;29.75;;;;;14.98;57.29;102377.34;2401949;28;45294;-82
2022/05/06 03:45:26;;;;;;;;;30.50;23.75;;;;;14.94;57.35;102378.31;2395742;28;45278;-82
2022/05/06 03:46:36;;;;;;;;;34.75;28.25;;;;;14.93;57.25;102373.94;2391127;28;47983;-85
2022/05/06 03:47:47;;;;;;;;;25.75;22.75;;;;;14.90;57.38;102376.66;2385961;28;44676;-85
2022/05/06 03:48:59;;;;;;;;;37.00;27.50;;;;;14.90;57.69;102381.97;2387217;28;45223;-86
2022/05/06 03:51:39;;;;;;;;;38.00;30.75;;;;;14.88;57.68;102381.13;2402866;28;45285;-85
2022/05/06 03:52:50;;;;;;;;;29.25;24.00;;;;;14.86;57.62;102378.53;2392867;28;45242;-84
2022/05/06 03:54:01;;;;;;;;;35.25;26.00;;;;;14.88;57.70;102375.84;2386278;28;47210;-83
2022/05/06 03:55:11;;;;;;;;;36.25;30.75;;;;;14.88;57.64;102366.13;2394020;28;45287;-80
2022/05/06 03:56:23;;;;;;;;;34.25;28.75;;;;;14.93;57.31;102379.25;2397146;28;45299;-80
2022/05/06 03:57:35;;;;;;;;;32.50;27.50;;;;;14.94;57.42;102381.84;2402915;28;45376;-79
2022/05/06 03:58:46;;;;;;;;;37.25;30.00;;;;;14.94;57.70;102381.84;2398006;28;45236;-79
2022/05/06 03:59:56;;;;;;;;;30.00;23.50;;;;;14.93;57.59;102379.25;2403036;28;45219;-79
2022/05/06 04:01:10;;;;;;;;;39.75;33.75;;;;;14.93;57.92;102379.25;2395842;28;45441;-79
2022/05/06 04:02:20;;;;;;;;;30.75;28.75;;;;;14.89;57.91;102389.03;2397632;28;44665;-78
2022/05/06 04:03:31;;;;;;;;;32.50;24.50;;;;;14.89;57.67;102389.03;2399286;28;45315;-79
2022/05/06 04:04:42;;;;;;;;;29.00;23.75;;;;;14.89;57.79;102382.88;2394715;28;45346;-79
2022/05/06 04:05:52;;;;;;;;;36.75;29.75;;;;;14.90;57.61;102389.91;2396709;28;48411;-79
2022/05/06 04:07:02;;;;;;;;;34.25;30.00;;;;;14.90;57.62;102390.78;2392267;28;45471;-79
2022/05/06 04:08:13;;;;;;;;;35.50;28.50;;;;;14.91;57.78;102392.53;2394734;28;46069;-78
2022/05/06 04:09:23;;;;;;;;;31.75;28.50;;;;;14.92;57.40;102388.06;2403148;28;44639;-79
2022/05/06 04:10:33;;;;;;;;;32.50;27.25;;;;;14.90;57.59;102393.44;2393352;28;46214;-78
2022/05/06 04:11:44;;;;;;;;;28.50;27.25;;;;;14.89;57.71;102391.66;2393549;28;44829;-78
2022/05/06 04:12:54;;;;;;;;;36.25;30.25;;;;;14.90;57.59;102396.06;2393263;28;45496;-78
2022/05/06 04:14:04;;;;;;;;;37.25;31.00;;;;;14.89;57.67;102394.31;2393397;28;45342;-78
2022/05/06 04:15:15;;;;;;;;;27.25;22.00;;;;;14.90;57.47;102389.91;2393196;28;45693;-78
2022/05/06 04:16:27;;;;;;;;;33.75;30.75;;;;;14.89;57.31;102398.78;2391186;28;45280;-78
2022/05/06 04:17:37;;;;;;;;;36.75;29.25;;;;;14.85;58.36;102393.53;2376789;28;47869;-79
2022/05/06 04:18:47;;;;;;;;;30.50;28.75;;;;;14.84;57.55;102401.50;2388113;28;45276;-80
2022/05/06 04:24:24;;;;;;;;;29.00;27.00;;;;;14.80;57.92;102395.41;2393488;28;45302;-80
2022/05/06 04:25:35;;;;;;;;;33.75;27.50;;;;;14.78;58.03;102396.34;2399392;28;46336;-79
2022/05/06 04:26:45;;;;;;;;;25.50;24.00;;;;;14.78;58.11;102398.97;2398978;28;45206;-80
2022/05/06 04:27:56;;;;;;;;;30.50;27.25;;;;;14.77;57.85;102403.41;2401387;28;48249;-80
2022/05/06 04:29:06;;;;;;;;;26.25;23.50;;;;;14.76;57.55;102403.44;2384552;28;45235;-79
2022/05/06 04:30:16;;;;;;;;;36.00;26.50;;;;;14.77;57.59;102400.75;2395262;28;45929;-79
2022/05/06 04:31:27;;;;;;;;;29.50;25.50;;;;;14.76;57.43;102403.44;2402826;28;45206;-79
2022/05/06 04:32:38;;;;;;;;;31.25;24.75;;;;;14.74;57.74;102414.09;2402052;28;45527;-79
2022/05/06 04:33:48;;;;;;;;;33.00;31.00;;;;;14.72;57.81;102407.94;2401377;28;45477;-79
2022/05/06 04:35:00;;;;;;;;;35.50;31.50;;;;;14.71;57.75;102407.09;2402707;28;46125;-78
2022/05/06 04:36:11;;;;;;;;;30.75;24.00;;;;;14.68;57.93;102411.56;2401462;28;45215;-82
2022/05/06 04:37:21;;;;;;;;;34.00;26.75;;;;;14.66;57.83;102414.25;2401965;28;45643;-82
2022/05/06 04:38:32;;;;;;;;;32.50;28.75;;;;;14.64;57.99;102416.06;2397511;28;45298;-82
2022/05/06 04:39:42;;;;;;;;;34.00;29.25;;;;;14.62;58.18;102416.09;2393027;28;45501;-83
2022/05/06 04:40:55;;;;;;;;;34.75;29.75;;;;;14.63;57.83;102424.91;2393363;28;45332;-83
2022/05/06 04:42:06;;;;;;;;;33.00;27.00;;;;;14.63;58.34;102425.78;2390903;28;47168;-83
2022/05/06 04:43:21;;;;;;;;;32.75;26.25;;;;;14.63;58.12;102424.91;2383196;28;45260;-83
2022/05/06 04:44:31;;;;;;;;;33.00;29.00;;;;;14.63;58.15;102420.50;2378181;28;47094;-82
2022/05/06 04:45:45;;;;;;;;;31.75;25.75;;;;;14.68;58.00;102422.16;2389523;28;45188;-82
2022/05/06 04:46:56;;;;;;;;;26.00;23.00;;;;;14.69;58.38;102423.91;2389030;28;48158;-82
2022/05/06 04:48:08;;;;;;;;;32.75;29.00;;;;;14.70;58.16;102423.84;2394465;28;44613;-83
2022/05/06 04:49:19;;;;;;;;;29.75;27.75;;;;;14.71;57.92;102427.38;2397074;28;46081;-83
2022/05/06 04:50:29;;;;;;;;;34.25;29.00;;;;;14.70;58.27;102415.91;2402825;28;45167;-88
2022/05/06 04:51:39;;;;;;;;;31.75;26.75;;;;;14.73;58.25;102429.09;2401889;28;47075;-81
2022/05/06 04:52:50;;;;;;;;;35.50;30.75;;;;;14.71;57.95;102425.63;2396415;28;44750;-81
2022/05/06 04:54:00;;;;;;;;;30.50;26.00;;;;;14.71;57.96;102427.38;2383132;28;47019;-80
2022/05/06 04:55:10;;;;;;;;;34.75;27.50;;;;;14.71;58.09;102432.69;2385758;28;45229;-80
2022/05/06 04:56:22;;;;;;;;;32.75;26.00;;;;;14.70;58.17;102426.50;2398846;28;46299;-81
2022/05/06 04:57:32;;;;;;;;;29.75;26.75;;;;;14.73;58.17;102430.84;2402370;28;45354;-81
2022/05/06 04:58:43;;;;;;;;;33.25;29.75;;;;;14.74;58.17;102437.91;2402185;28;45979;-80
2022/05/06 04:59:53;;;;;;;;;29.75;26.50;;;;;14.74;57.83;102436.09;2400314;28;45444;-80
2022/05/06 05:01:04;;;;;;;;;31.75;28.25;;;;;14.75;58.29;102439.63;2393110;28;45370;-81
2022/05/06 05:02:18;;;;;;;;;32.50;28.75;;;;;14.76;58.04;102435.22;2393234;28;45418;-80
2022/05/06 05:03:28;;;;;;;;;30.00;28.00;;;;;14.75;57.90;102434.34;2393212;28;46727;-80
2022/05/06 05:04:39;;;;;;;;;34.50;29.50;;;;;14.77;58.29;102442.22;2394312;28;44725;-80
2022/05/06 05:05:50;;;;;;;;;38.00;31.50;;;;;14.77;58.37;102447.53;2385294;28;46991;-80
2022/05/06 05:07:00;;;;;;;;;33.75;27.75;;;;;14.75;58.01;102436.97;2386106;28;45251;-80
2022/05/06 05:08:10;;;;;;;;;32.75;30.75;;;;;14.73;57.88;102434.38;2392551;28;46378;-80
2022/05/06 05:09:21;;;;;;;;;30.75;30.75;;;;;14.77;58.15;102436.94;2393265;28;45220;-80
2022/05/06 05:10:31;;;;;;;;;30.50;27.75;;;;;14.76;58.02;102436.09;2392795;28;45176;-80
2022/05/06 05:11:42;;;;;;;;;30.00;25.75;;;;;14.78;58.12;102439.56;2393073;28;44626;-81
2022/05/06 05:12:52;;;;;;;;;39.25;27.00;;;;;14.79;58.55;102438.63;2383101;28;47041;-81
2022/05/06 05:14:06;;;;;;;;;38.25;33.25;;;;;14.79;58.23;102438.63;2392419;28;45404;-82
2022/05/06 05:15:16;;;;;;;;;35.00;27.00;;;;;14.79;58.14;102438.63;2382926;28;47186;-82
2022/05/06 05:16:27;;;;;;;;;28.00;27.25;;;;;14.81;58.27;102439.50;2378657;28;46883;-82
2022/05/06 05:17:37;;;;;;;;;37.25;28.25;;;;;14.83;58.21;102442.09;2394166;28;45255;-82
2022/05/06 05:18:48;;;;;;;;;31.75;30.50;;;;;14.84;57.98;102435.91;2401662;28;45258;-82
2022/05/06 05:19:58;;;;;;;;;30.25;27.50;;;;;14.83;57.99;102434.16;2399083;28;45274;-81
2022/05/06 05:21:08;;;;;;;;;32.75;27.00;;;;;14.84;58.14;102444.69;2393161;28;45199;-82
2022/05/06 05:22:19;;;;;;;;;33.50;28.00;;;;;14.84;58.08;102434.09;2399990;28;46283;-82
2022/05/06 05:23:31;;;;;;;;;33.25;26.50;;;;;14.85;58.06;102435.91;2402377;28;44628;-82
2022/05/06 05:24:41;;;;;;;;;32.75;26.50;;;;;14.85;58.20;102433.25;2402176;28;45397;-82
2022/05/06 05:25:51;;;;;;;;;34.25;31.25;;;;;14.87;58.11;102440.25;2400014;28;45240;-82
2022/05/06 05:27:02;;;;;;;;;36.00;26.75;;;;;14.89;58.29;102435.84;2398396;28;45413;-81
2022/05/06 05:28:12;;;;;;;;;33.50;30.25;;;;;14.91;58.14;102442.84;2401357;28;45243;-81
2022/05/06 05:29:23;;;;;;;;;36.50;30.00;;;;;14.93;58.12;102438.38;2392750;28;46238;-87
2022/05/06 05:30:35;;;;;;;;;35.50;30.00;;;;;14.95;58.24;102446.25;2396992;28;45311;-86
2022/05/06 05:31:47;;;;;;;;;35.50;32.00;;;;;14.94;58.14;102441.84;2402261;28;45679;-85
2022/05/06 05:32:57;;;;;;;;;32.25;23.75;;;;;14.94;57.88;102445.38;2396078;28;44565;-82
2022/05/06 05:34:07;;;;;;;;;29.75;27.75;;;;;14.96;58.14;102445.38;2403464;28;46049;-81
2022/05/06 05:35:18;;;;;;;;;34.00;30.00;;;;;14.96;57.99;102448.84;2398398;28;44884;-81
2022/05/06 05:36:28;;;;;;;;;36.25;31.50;;;;;14.96;57.99;102440.91;2401232;28;45473;-81